createdAt,value
2018-05-06T00:00:38.346Z,727.25
2018-05-06T00:01:38.813Z,727.24
2018-05-06T00:02:39.287Z,727.19
2018-05-06T00:03:39.767Z,727.19
2018-05-06T00:04:40.233Z,727.21
2018-05-06T00:05:40.706Z,727.22
2018-05-06T00:06:41.180Z,727.28
2018-05-06T00:07:41.651Z,727.22
2018-05-06T00:08:42.127Z,727.27
2018-05-06T00:09:42.596Z,727.24
2018-05-06T00:10:43.068Z,727.28
2018-05-06T00:11:43.538Z,727.28
2018-05-06T00:12:44.011Z,727.23
2018-05-06T00:13:44.480Z,727.28
2018-05-06T00:14:44.954Z,727.25
2018-05-06T00:15:45.423Z,727.27
2018-05-06T00:16:45.894Z,727.23
2018-05-06T00:17:46.366Z,727.21
2018-05-06T00:18:46.837Z,727.20
2018-05-06T00:19:47.305Z,727.22
2018-05-06T00:20:47.776Z,727.21
2018-05-06T00:21:48.251Z,727.20
2018-05-06T00:22:48.717Z,727.23
2018-05-06T00:23:49.187Z,727.24
2018-05-06T00:24:49.658Z,727.30
2018-05-06T00:25:50.128Z,727.25
2018-05-06T00:26:50.599Z,727.34
2018-05-06T00:27:51.069Z,727.29
2018-05-06T00:28:51.540Z,727.23
2018-05-06T00:29:52.011Z,727.29
2018-05-06T00:30:52.483Z,727.28
2018-05-06T00:31:52.956Z,727.30
2018-05-06T00:32:53.425Z,727.26
2018-05-06T00:33:53.895Z,727.24
2018-05-06T00:34:54.365Z,727.24
2018-05-06T00:35:54.837Z,727.27
2018-05-06T00:36:55.306Z,727.29
2018-05-06T00:37:55.783Z,727.23
2018-05-06T00:38:56.251Z,727.19
2018-05-06T00:39:56.719Z,727.20
2018-05-06T00:40:57.193Z,727.23
2018-05-06T00:41:57.667Z,727.20
2018-05-06T00:42:58.137Z,727.20
2018-05-06T00:43:58.608Z,727.19
2018-05-06T00:44:59.080Z,727.21
2018-05-06T00:45:59.556Z,727.24
2018-05-06T00:47:00.026Z,727.22
2018-05-06T00:48:00.499Z,727.19
2018-05-06T00:49:00.971Z,727.26
2018-05-06T00:50:01.451Z,727.19
2018-05-06T00:51:01.919Z,727.23
2018-05-06T00:52:02.389Z,727.24
2018-05-06T00:53:02.863Z,727.27
2018-05-06T00:54:03.384Z,727.23
2018-05-06T00:55:03.808Z,727.25
2018-05-06T00:56:04.279Z,727.28
2018-05-06T00:57:04.755Z,727.27
2018-05-06T00:58:05.229Z,727.27
2018-05-06T00:59:05.704Z,727.31
2018-05-06T01:00:06.176Z,727.24
2018-05-06T01:01:06.854Z,727.28
2018-05-06T01:02:07.123Z,727.28
2018-05-06T01:03:07.597Z,727.22
2018-05-06T01:04:08.123Z,727.22
2018-05-06T01:05:08.546Z,727.28
2018-05-06T01:06:09.025Z,727.23
2018-05-06T01:07:09.500Z,727.22
2018-05-06T01:08:09.969Z,727.29
2018-05-06T01:09:10.493Z,727.25
2018-05-06T01:10:10.918Z,727.27
2018-05-06T01:11:11.391Z,727.24
2018-05-06T01:12:11.871Z,727.27
2018-05-06T01:13:12.340Z,727.21
2018-05-06T01:14:12.814Z,727.22
2018-05-06T01:15:13.290Z,727.22
2018-05-06T01:16:13.759Z,727.18
2018-05-06T01:17:14.235Z,727.18
2018-05-06T01:18:14.708Z,727.22
2018-05-06T01:19:15.232Z,727.19
2018-05-06T01:20:15.653Z,727.16
2018-05-06T01:21:16.127Z,727.15
2018-05-06T01:22:16.600Z,727.13
2018-05-06T01:23:17.073Z,727.13
2018-05-06T01:24:17.544Z,727.11
2018-05-06T01:25:18.017Z,727.15
2018-05-06T01:26:18.489Z,727.12
2018-05-06T01:27:18.961Z,727.20
2018-05-06T01:28:19.429Z,727.18
2018-05-06T01:29:19.901Z,727.20
2018-05-06T01:30:20.372Z,727.22
2018-05-06T01:31:20.842Z,727.16
2018-05-06T01:32:21.311Z,727.20
2018-05-06T01:33:21.785Z,727.15
2018-05-06T01:34:22.254Z,727.22
2018-05-06T01:35:22.726Z,727.11
2018-05-06T01:36:23.195Z,727.14
2018-05-06T01:37:23.666Z,727.22
2018-05-06T01:38:24.139Z,727.18
2018-05-06T01:39:24.607Z,727.16
2018-05-06T01:40:25.074Z,727.16
2018-05-06T01:41:25.546Z,727.15
2018-05-06T01:42:26.018Z,727.16
2018-05-06T01:43:26.486Z,727.17
2018-05-06T01:44:26.962Z,727.23
2018-05-06T01:45:27.429Z,727.15
2018-05-06T01:46:27.900Z,727.18
2018-05-06T01:47:28.371Z,727.23
2018-05-06T01:48:28.839Z,727.11
2018-05-06T01:49:29.363Z,727.16
2018-05-06T01:50:29.783Z,727.13
2018-05-06T01:51:30.258Z,727.11
2018-05-06T01:52:30.726Z,727.08
2018-05-06T01:53:31.194Z,727.13
2018-05-06T01:54:31.716Z,727.12
2018-05-06T01:55:32.339Z,727.13
2018-05-06T01:56:32.608Z,727.21
2018-05-06T01:57:33.080Z,727.15
2018-05-06T01:58:33.551Z,727.17
2018-05-06T01:59:34.024Z,727.16
2018-05-06T02:00:34.493Z,727.16
2018-05-06T02:01:34.967Z,727.20
2018-05-06T02:02:35.439Z,727.18
2018-05-06T02:03:35.911Z,727.15
2018-05-06T02:04:36.382Z,727.14
2018-05-06T02:05:36.856Z,727.19
2018-05-06T02:06:37.329Z,727.18
2018-05-06T02:07:37.803Z,727.15
2018-05-06T02:08:38.275Z,727.15
2018-05-06T02:09:38.747Z,727.16
2018-05-06T02:10:39.227Z,727.15
2018-05-06T02:11:39.695Z,727.20
2018-05-06T02:12:40.191Z,727.12
2018-05-06T02:13:40.640Z,727.16
2018-05-06T02:14:41.115Z,727.10
2018-05-06T02:15:41.586Z,727.22
2018-05-06T02:16:42.063Z,727.22
2018-05-06T02:17:42.536Z,727.15
2018-05-06T02:18:43.012Z,727.17
2018-05-06T02:19:43.485Z,727.18
2018-05-06T02:20:43.959Z,727.14
2018-05-06T02:21:44.434Z,727.11
2018-05-06T02:22:44.907Z,727.16
2018-05-06T02:23:45.378Z,727.10
2018-05-06T02:24:45.853Z,727.07
2018-05-06T02:25:46.327Z,727.11
2018-05-06T02:26:46.803Z,727.11
2018-05-06T02:27:47.281Z,727.13
2018-05-06T02:28:47.753Z,727.11
2018-05-06T02:29:48.228Z,727.16
2018-05-06T02:30:48.700Z,727.08
2018-05-06T02:31:49.173Z,727.16
2018-05-06T02:32:49.644Z,727.14
2018-05-06T02:33:50.119Z,727.07
2018-05-06T02:34:50.593Z,727.14
2018-05-06T02:35:51.070Z,727.11
2018-05-06T02:36:51.539Z,727.10
2018-05-06T02:37:52.012Z,727.07
2018-05-06T02:38:52.485Z,727.08
2018-05-06T02:39:53.008Z,727.09
2018-05-06T02:40:53.428Z,727.07
2018-05-06T02:41:53.942Z,727.12
2018-05-06T02:42:54.372Z,727.07
2018-05-06T02:43:54.845Z,727.08
2018-05-06T02:44:55.319Z,727.06
2018-05-06T02:45:55.787Z,727.05
2018-05-06T02:46:56.261Z,727.04
2018-05-06T02:47:56.729Z,727.06
2018-05-06T02:48:57.200Z,727.04
2018-05-06T02:49:57.671Z,726.99
2018-05-06T02:50:58.143Z,727.03
2018-05-06T02:51:58.612Z,727.02
2018-05-06T02:52:59.082Z,727.07
2018-05-06T02:53:59.553Z,727.06
2018-05-06T02:55:00.024Z,726.97
2018-05-06T02:56:00.497Z,726.95
2018-05-06T02:57:00.963Z,727.00
2018-05-06T02:58:01.434Z,726.97
2018-05-06T02:59:01.902Z,726.96
2018-05-06T03:00:02.425Z,726.99
2018-05-06T03:01:02.846Z,727.01
2018-05-06T03:02:03.314Z,726.99
2018-05-06T03:03:03.785Z,727.01
2018-05-06T03:04:04.259Z,726.99
2018-05-06T03:05:04.729Z,727.01
2018-05-06T03:06:05.199Z,726.98
2018-05-06T03:07:05.668Z,727.00
2018-05-06T03:08:06.141Z,726.93
2018-05-06T03:09:06.609Z,726.99
2018-05-06T03:10:07.082Z,726.95
2018-05-06T03:11:07.552Z,726.92
2018-05-06T03:12:08.022Z,726.93
2018-05-06T03:13:08.495Z,726.89
2018-05-06T03:14:08.965Z,726.88
2018-05-06T03:15:09.487Z,726.93
2018-05-06T03:16:09.908Z,726.88
2018-05-06T03:17:10.379Z,726.86
2018-05-06T03:18:10.852Z,726.89
2018-05-06T03:19:11.326Z,726.95
2018-05-06T03:20:11.796Z,726.93
2018-05-06T03:21:12.267Z,726.85
2018-05-06T03:22:12.739Z,726.89
2018-05-06T03:23:13.213Z,726.89
2018-05-06T03:24:13.685Z,726.91
2018-05-06T03:25:14.156Z,726.91
2018-05-06T03:26:14.632Z,726.88
2018-05-06T03:27:15.101Z,726.88
2018-05-06T03:28:15.577Z,726.86
2018-05-06T03:29:16.050Z,726.84
2018-05-06T03:30:16.522Z,726.89
2018-05-06T03:31:16.998Z,726.86
2018-05-06T03:32:17.468Z,726.89
2018-05-06T03:33:17.945Z,726.87
2018-05-06T03:34:18.415Z,726.90
2018-05-06T03:35:18.940Z,726.86
2018-05-06T03:36:19.362Z,726.85
2018-05-06T03:37:19.836Z,726.83
2018-05-06T03:38:20.310Z,726.89
2018-05-06T03:39:20.783Z,726.84
2018-05-06T03:40:21.261Z,726.87
2018-05-06T03:41:21.732Z,726.80
2018-05-06T03:42:22.209Z,726.79
2018-05-06T03:43:22.682Z,726.82
2018-05-06T03:44:23.156Z,726.79
2018-05-06T03:45:23.628Z,726.85
2018-05-06T03:46:24.103Z,726.81
2018-05-06T03:47:24.577Z,726.85
2018-05-06T03:48:25.050Z,726.78
2018-05-06T03:49:25.528Z,726.86
2018-05-06T03:50:25.996Z,726.84
2018-05-06T03:51:26.473Z,726.82
2018-05-06T03:52:26.946Z,726.87
2018-05-06T03:53:27.422Z,726.82
2018-05-06T03:54:27.891Z,726.92
2018-05-06T03:55:28.364Z,726.87
2018-05-06T03:56:28.837Z,726.93
2018-05-06T03:57:29.312Z,726.91
2018-05-06T03:58:29.784Z,726.89
2018-05-06T03:59:30.256Z,726.84
2018-05-06T04:00:30.753Z,726.87
2018-05-06T04:01:31.199Z,726.87
2018-05-06T04:02:31.670Z,726.80
2018-05-06T04:03:32.142Z,726.83
2018-05-06T04:04:32.614Z,726.86
2018-05-06T04:05:33.085Z,726.86
2018-05-06T04:06:33.555Z,726.86
2018-05-06T04:07:34.026Z,726.84
2018-05-06T04:08:34.499Z,726.85
2018-05-06T04:09:34.967Z,726.84
2018-05-06T04:10:35.492Z,726.81
2018-05-06T04:11:35.910Z,726.87
2018-05-06T04:12:36.380Z,726.88
2018-05-06T04:13:36.853Z,726.90
2018-05-06T04:14:37.321Z,726.87
2018-05-06T04:15:37.841Z,726.90
2018-05-06T04:16:38.267Z,726.89
2018-05-06T04:17:38.731Z,726.94
2018-05-06T04:18:39.201Z,726.96
2018-05-06T04:19:39.671Z,726.97
2018-05-06T04:20:40.143Z,726.96
2018-05-06T04:21:40.611Z,726.98
2018-05-06T04:22:41.084Z,727.02
2018-05-06T04:23:41.553Z,727.05
2018-05-06T04:24:42.025Z,727.02
2018-05-06T04:25:42.495Z,726.95
2018-05-06T04:26:43.009Z,726.98
2018-05-06T04:27:43.437Z,726.95
2018-05-06T04:28:43.911Z,726.97
2018-05-06T04:29:44.380Z,726.99
2018-05-06T04:30:44.850Z,726.97
2018-05-06T04:31:45.323Z,727.00
2018-05-06T04:32:45.793Z,727.01
2018-05-06T04:33:46.265Z,727.01
2018-05-06T04:34:46.737Z,727.01
2018-05-06T04:35:47.259Z,727.00
2018-05-06T04:36:47.681Z,727.00
2018-05-06T04:37:48.156Z,727.04
2018-05-06T04:38:48.624Z,727.01
2018-05-06T04:39:49.100Z,727.03
2018-05-06T04:40:49.572Z,727.02
2018-05-06T04:41:50.043Z,726.99
2018-05-06T04:42:50.516Z,727.00
2018-05-06T04:43:50.989Z,727.00
2018-05-06T04:44:51.463Z,726.94
2018-05-06T04:45:51.935Z,726.95
2018-05-06T04:46:52.415Z,727.00
2018-05-06T04:47:52.883Z,726.98
2018-05-06T04:48:53.357Z,726.97
2018-05-06T04:49:53.832Z,726.96
2018-05-06T04:50:54.306Z,726.98
2018-05-06T04:51:54.779Z,727.01
2018-05-06T04:52:55.253Z,726.99
2018-05-06T04:53:55.728Z,727.02
2018-05-06T04:54:56.201Z,727.01
2018-05-06T04:55:56.676Z,727.00
2018-05-06T04:56:57.151Z,726.97
2018-05-06T04:57:57.626Z,727.00
2018-05-06T04:58:58.100Z,727.05
2018-05-06T04:59:58.575Z,727.01
2018-05-06T05:00:59.099Z,726.99
2018-05-06T05:01:59.525Z,727.01
2018-05-06T05:03:00.003Z,727.00
2018-05-06T05:04:00.472Z,727.01
2018-05-06T05:05:00.947Z,727.00
2018-05-06T05:06:01.426Z,727.04
2018-05-06T05:07:01.897Z,727.03
2018-05-06T05:08:02.373Z,727.00
2018-05-06T05:09:02.844Z,727.02
2018-05-06T05:10:03.317Z,727.01
2018-05-06T05:11:03.790Z,727.04
2018-05-06T05:12:04.267Z,726.99
2018-05-06T05:13:04.739Z,727.00
2018-05-06T05:14:05.211Z,727.05
2018-05-06T05:15:05.684Z,727.02
2018-05-06T05:16:06.156Z,726.99
2018-05-06T05:17:06.636Z,727.06
2018-05-06T05:18:07.101Z,727.08
2018-05-06T05:19:07.574Z,727.04
2018-05-06T05:20:08.047Z,727.08
2018-05-06T05:21:08.517Z,727.04
2018-05-06T05:22:08.990Z,727.05
2018-05-06T05:23:09.463Z,727.06
2018-05-06T05:24:09.934Z,727.01
2018-05-06T05:25:10.405Z,727.06
2018-05-06T05:26:10.876Z,727.08
2018-05-06T05:27:11.347Z,727.08
2018-05-06T05:28:11.830Z,727.07
2018-05-06T05:29:12.289Z,727.10
2018-05-06T05:30:12.760Z,727.07
2018-05-06T05:31:13.232Z,727.14
2018-05-06T05:32:13.704Z,727.10
2018-05-06T05:33:14.175Z,727.08
2018-05-06T05:34:14.645Z,727.11
2018-05-06T05:35:15.121Z,727.10
2018-05-06T05:36:15.593Z,727.06
2018-05-06T05:37:16.060Z,727.08
2018-05-06T05:38:16.531Z,727.10
2018-05-06T05:39:17.006Z,727.12
2018-05-06T05:40:17.475Z,727.11
2018-05-06T05:41:17.998Z,727.16
2018-05-06T05:42:18.420Z,727.10
2018-05-06T05:43:18.892Z,727.10
2018-05-06T05:44:19.365Z,727.12
2018-05-06T05:45:19.837Z,727.08
2018-05-06T05:46:20.309Z,727.13
2018-05-06T05:47:20.984Z,727.05
2018-05-06T05:48:21.256Z,727.02
2018-05-06T05:49:21.732Z,727.03
2018-05-06T05:50:22.205Z,727.04
2018-05-06T05:51:22.675Z,727.05
2018-05-06T05:52:23.148Z,727.05
2018-05-06T05:53:23.624Z,727.11
2018-05-06T05:54:24.097Z,727.08
2018-05-06T05:55:24.572Z,726.98
2018-05-06T05:56:25.048Z,727.07
2018-05-06T05:57:25.525Z,727.02
2018-05-06T05:58:25.994Z,727.02
2018-05-06T05:59:26.471Z,727.05
2018-05-06T06:00:26.944Z,727.05
2018-05-06T06:01:27.425Z,727.03
2018-05-06T06:02:27.894Z,727.02
2018-05-06T06:03:28.370Z,727.04
2018-05-06T06:04:28.847Z,727.06
2018-05-06T06:05:29.321Z,727.10
2018-05-06T06:06:29.794Z,727.06
2018-05-06T06:07:30.270Z,727.05
2018-05-06T06:08:30.754Z,727.06
2018-05-06T06:09:31.223Z,727.04
2018-05-06T06:10:31.699Z,727.03
2018-05-06T06:11:32.172Z,727.00
2018-05-06T06:12:32.646Z,727.12
2018-05-06T06:13:33.121Z,727.04
2018-05-06T06:14:33.596Z,727.06
2018-05-06T06:15:34.072Z,727.04
2018-05-06T06:16:34.543Z,727.06
2018-05-06T06:17:35.019Z,727.09
2018-05-06T06:18:35.494Z,727.09
2018-05-06T06:19:35.967Z,727.03
2018-05-06T06:20:36.440Z,727.09
2018-05-06T06:21:36.913Z,727.07
2018-05-06T06:22:37.386Z,727.07
2018-05-06T06:23:37.859Z,727.08
2018-05-06T06:24:38.424Z,727.04
2018-05-06T06:25:38.811Z,727.11
2018-05-06T06:26:39.330Z,727.09
2018-05-06T06:27:39.750Z,727.15
2018-05-06T06:28:40.224Z,727.14
2018-05-06T06:29:40.697Z,727.11
2018-05-06T06:30:41.170Z,727.12
2018-05-06T06:31:41.641Z,727.15
2018-05-06T06:32:42.113Z,727.10
2018-05-06T06:33:42.584Z,727.13
2018-05-06T06:34:43.062Z,727.15
2018-05-06T06:35:43.528Z,727.16
2018-05-06T06:36:44.003Z,727.17
2018-05-06T06:37:44.470Z,727.18
2018-05-06T06:38:44.942Z,727.21
2018-05-06T06:39:45.414Z,727.15
2018-05-06T06:40:45.886Z,727.14
2018-05-06T06:41:46.359Z,727.16
2018-05-06T06:42:46.832Z,727.18
2018-05-06T06:43:47.300Z,727.17
2018-05-06T06:44:47.773Z,727.23
2018-05-06T06:45:48.251Z,727.18
2018-05-06T06:46:48.769Z,727.14
2018-05-06T06:47:49.193Z,727.16
2018-05-06T06:48:49.661Z,727.15
2018-05-06T06:49:50.137Z,727.15
2018-05-06T06:50:50.608Z,727.18
2018-05-06T06:51:51.081Z,727.18
2018-05-06T06:52:51.554Z,727.17
2018-05-06T06:53:52.039Z,727.15
2018-05-06T06:54:52.507Z,727.11
2018-05-06T06:55:52.973Z,727.16
2018-05-06T06:56:53.449Z,727.20
2018-05-06T06:57:53.923Z,727.15
2018-05-06T06:58:54.397Z,727.17
2018-05-06T06:59:54.870Z,727.11
2018-05-06T07:00:55.346Z,727.16
2018-05-06T07:01:55.823Z,727.18
2018-05-06T07:02:56.296Z,727.16
2018-05-06T07:03:56.777Z,727.15
2018-05-06T07:04:57.247Z,727.13
2018-05-06T07:05:57.812Z,727.14
2018-05-06T07:06:58.197Z,727.17
2018-05-06T07:07:58.672Z,727.15
2018-05-06T07:08:59.152Z,727.14
2018-05-06T07:09:59.625Z,727.19
2018-05-06T07:11:00.100Z,727.18
2018-05-06T07:12:00.631Z,727.23
2018-05-06T07:13:01.054Z,727.17
2018-05-06T07:14:01.527Z,727.20
2018-05-06T07:15:02.006Z,727.19
2018-05-06T07:16:02.483Z,727.26
2018-05-06T07:17:03.006Z,727.20
2018-05-06T07:18:03.429Z,727.25
2018-05-06T07:19:03.905Z,727.27
2018-05-06T07:20:04.381Z,727.23
2018-05-06T07:21:04.858Z,727.16
2018-05-06T07:22:05.332Z,727.18
2018-05-06T07:23:05.805Z,727.20
2018-05-06T07:24:06.281Z,727.24
2018-05-06T07:25:06.756Z,727.24
2018-05-06T07:26:07.231Z,727.20
2018-05-06T07:27:07.755Z,727.22
2018-05-06T07:28:08.179Z,727.25
2018-05-06T07:29:08.653Z,727.22
2018-05-06T07:30:09.130Z,727.22
2018-05-06T07:31:09.605Z,727.21
2018-05-06T07:32:10.080Z,727.22
2018-05-06T07:33:10.547Z,727.23
2018-05-06T07:34:11.022Z,727.24
2018-05-06T07:35:11.494Z,727.20
2018-05-06T07:36:11.968Z,727.20
2018-05-06T07:37:12.443Z,727.24
2018-05-06T07:38:12.914Z,727.26
2018-05-06T07:39:13.387Z,727.24
2018-05-06T07:40:13.861Z,727.30
2018-05-06T07:41:14.331Z,727.27
2018-05-06T07:42:14.856Z,727.35
2018-05-06T07:43:15.281Z,727.33
2018-05-06T07:44:15.751Z,727.32
2018-05-06T07:45:16.221Z,727.32
2018-05-06T07:46:16.698Z,727.32
2018-05-06T07:47:17.165Z,727.35
2018-05-06T07:48:17.637Z,727.34
2018-05-06T07:49:18.109Z,727.38
2018-05-06T07:50:18.583Z,727.38
2018-05-06T07:51:19.052Z,727.37
2018-05-06T07:52:19.526Z,727.36
2018-05-06T07:53:19.997Z,727.39
2018-05-06T07:54:20.471Z,727.36
2018-05-06T07:55:20.945Z,727.38
2018-05-06T07:56:21.417Z,727.35
2018-05-06T07:57:21.889Z,727.34
2018-05-06T07:58:22.562Z,727.42
2018-05-06T07:59:22.832Z,727.39
2018-05-06T08:00:23.307Z,727.43
2018-05-06T08:01:23.781Z,727.39
2018-05-06T08:02:24.304Z,727.42
2018-05-06T08:03:24.727Z,727.39
2018-05-06T08:04:25.203Z,727.41
2018-05-06T08:05:25.675Z,727.42
2018-05-06T08:06:26.154Z,727.41
2018-05-06T08:07:26.625Z,727.46
2018-05-06T08:08:27.098Z,727.47
2018-05-06T08:09:27.575Z,727.41
2018-05-06T08:10:28.054Z,727.46
2018-05-06T08:11:28.526Z,727.42
2018-05-06T08:12:29.000Z,727.44
2018-05-06T08:13:29.475Z,727.41
2018-05-06T08:14:29.953Z,727.44
2018-05-06T08:15:30.429Z,727.41
2018-05-06T08:16:30.972Z,727.38
2018-05-06T08:17:31.431Z,727.42
2018-05-06T08:18:31.857Z,727.39
2018-05-06T08:19:32.332Z,727.38
2018-05-06T08:20:32.809Z,727.42
2018-05-06T08:21:33.285Z,727.40
2018-05-06T08:22:33.761Z,727.38
2018-05-06T08:23:34.239Z,727.32
2018-05-06T08:24:34.714Z,727.38
2018-05-06T08:25:35.191Z,727.36
2018-05-06T08:26:35.667Z,727.37
2018-05-06T08:27:36.142Z,727.37
2018-05-06T08:28:36.619Z,727.35
2018-05-06T08:29:37.097Z,727.45
2018-05-06T08:30:37.570Z,727.41
2018-05-06T08:31:38.048Z,727.31
2018-05-06T08:32:38.521Z,727.36
2018-05-06T08:33:38.999Z,727.37
2018-05-06T08:34:39.472Z,727.40
2018-05-06T08:35:39.950Z,727.44
2018-05-06T08:36:40.422Z,727.38
2018-05-06T08:37:41.017Z,727.38
2018-05-06T08:38:41.373Z,727.40
2018-05-06T08:39:41.846Z,727.42
2018-05-06T08:40:42.323Z,727.42
2018-05-06T08:41:42.795Z,727.39
2018-05-06T08:42:43.272Z,727.40
2018-05-06T08:43:43.745Z,727.40
2018-05-06T08:44:44.217Z,727.47
2018-05-06T08:45:44.731Z,727.46
2018-05-06T08:46:45.165Z,727.47
2018-05-06T08:47:45.639Z,727.47
2018-05-06T08:48:46.116Z,727.51
2018-05-06T08:49:46.586Z,727.47
2018-05-06T08:50:47.059Z,727.46
2018-05-06T08:51:47.532Z,727.50
2018-05-06T08:52:48.056Z,727.47
2018-05-06T08:53:48.477Z,727.47
2018-05-06T08:54:48.954Z,727.45
2018-05-06T08:55:49.422Z,727.48
2018-05-06T08:56:49.897Z,727.42
2018-05-06T08:57:50.368Z,727.45
2018-05-06T08:58:50.845Z,727.52
2018-05-06T08:59:51.317Z,727.51
2018-05-06T09:00:51.788Z,727.47
2018-05-06T09:01:52.260Z,727.49
2018-05-06T09:02:52.731Z,727.50
2018-05-06T09:03:53.204Z,727.47
2018-05-06T09:04:53.675Z,727.45
2018-05-06T09:05:54.148Z,727.50
2018-05-06T09:06:54.622Z,727.48
2018-05-06T09:07:55.096Z,727.52
2018-05-06T09:08:55.567Z,727.53
2018-05-06T09:09:56.040Z,727.45
2018-05-06T09:10:56.513Z,727.48
2018-05-06T09:11:56.985Z,727.52
2018-05-06T09:12:57.509Z,727.52
2018-05-06T09:13:57.929Z,727.44
2018-05-06T09:14:58.404Z,727.47
2018-05-06T09:15:58.876Z,727.54
2018-05-06T09:16:59.354Z,727.47
2018-05-06T09:17:59.830Z,727.53
2018-05-06T09:19:00.298Z,727.54
2018-05-06T09:20:00.774Z,727.50
2018-05-06T09:21:01.253Z,727.52
2018-05-06T09:22:01.724Z,727.50
2018-05-06T09:23:02.201Z,727.53
2018-05-06T09:24:02.675Z,727.49
2018-05-06T09:25:03.151Z,727.47
2018-05-06T09:26:03.625Z,727.52
2018-05-06T09:27:04.104Z,727.49
2018-05-06T09:28:04.630Z,727.50
2018-05-06T09:29:05.056Z,727.52
2018-05-06T09:30:05.531Z,727.51
2018-05-06T09:31:06.009Z,727.55
2018-05-06T09:32:06.486Z,727.51
2018-05-06T09:33:06.962Z,727.54
2018-05-06T09:34:07.442Z,727.51
2018-05-06T09:35:07.917Z,727.52
2018-05-06T09:36:08.395Z,727.53
2018-05-06T09:37:08.872Z,727.56
2018-05-06T09:38:09.350Z,727.55
2018-05-06T09:39:09.824Z,727.51
2018-05-06T09:40:10.302Z,727.56
2018-05-06T09:41:10.780Z,727.53
2018-05-06T09:42:11.257Z,727.52
2018-05-06T09:43:11.785Z,727.51
2018-05-06T09:44:12.210Z,727.54
2018-05-06T09:45:12.686Z,727.53
2018-05-06T09:46:13.164Z,727.56
2018-05-06T09:47:13.642Z,727.53
2018-05-06T09:48:14.117Z,727.57
2018-05-06T09:49:14.595Z,727.54
2018-05-06T09:50:15.071Z,727.58
2018-05-06T09:51:15.549Z,727.57
2018-05-06T09:52:16.023Z,727.58
2018-05-06T09:53:16.552Z,727.56
2018-05-06T09:54:16.977Z,727.59
2018-05-06T09:55:17.454Z,727.55
2018-05-06T09:56:17.930Z,727.54
2018-05-06T09:57:18.405Z,727.50
2018-05-06T09:58:18.879Z,727.54
2018-05-06T09:59:19.356Z,727.57
2018-05-06T10:00:19.833Z,727.55
2018-05-06T10:01:20.312Z,727.59
2018-05-06T10:02:20.785Z,727.60
2018-05-06T10:03:21.261Z,727.57
2018-05-06T10:04:21.734Z,727.54
2018-05-06T10:05:22.209Z,727.58
2018-05-06T10:06:22.685Z,727.56
2018-05-06T10:07:23.159Z,727.53
2018-05-06T10:08:23.640Z,727.54
2018-05-06T10:09:24.110Z,727.60
2018-05-06T10:10:24.583Z,727.53
2018-05-06T10:11:25.060Z,727.53
2018-05-06T10:12:25.532Z,727.53
2018-05-06T10:13:26.059Z,727.58
2018-05-06T10:14:26.484Z,727.59
2018-05-06T10:15:26.960Z,727.58
2018-05-06T10:16:27.431Z,727.61
2018-05-06T10:17:27.907Z,727.60
2018-05-06T10:18:28.382Z,727.59
2018-05-06T10:19:28.856Z,727.57
2018-05-06T10:20:29.332Z,727.51
2018-05-06T10:21:29.802Z,727.51
2018-05-06T10:22:30.280Z,727.48
2018-05-06T10:23:30.753Z,727.54
2018-05-06T10:24:31.225Z,727.55
2018-05-06T10:25:31.698Z,727.56
2018-05-06T10:26:32.172Z,727.55
2018-05-06T10:27:32.648Z,727.54
2018-05-06T10:28:33.170Z,727.57
2018-05-06T10:29:33.595Z,727.56
2018-05-06T10:30:34.076Z,727.52
2018-05-06T10:31:34.541Z,727.55
2018-05-06T10:32:35.015Z,727.53
2018-05-06T10:33:35.489Z,727.55
2018-05-06T10:34:35.961Z,727.52
2018-05-06T10:35:36.435Z,727.51
2018-05-06T10:36:36.907Z,727.55
2018-05-06T10:37:37.382Z,727.50
2018-05-06T10:38:37.857Z,727.45
2018-05-06T10:39:38.328Z,727.54
2018-05-06T10:40:38.802Z,727.52
2018-05-06T10:41:39.273Z,727.51
2018-05-06T10:42:39.746Z,727.49
2018-05-06T10:43:40.269Z,727.48
2018-05-06T10:44:40.691Z,727.55
2018-05-06T10:45:41.164Z,727.61
2018-05-06T10:46:41.637Z,727.52
2018-05-06T10:47:42.116Z,727.57
2018-05-06T10:48:42.581Z,727.56
2018-05-06T10:49:43.061Z,727.53
2018-05-06T10:50:43.529Z,727.49
2018-05-06T10:51:44.002Z,727.54
2018-05-06T10:52:44.474Z,727.56
2018-05-06T10:53:44.946Z,727.55
2018-05-06T10:54:45.419Z,727.54
2018-05-06T10:55:45.891Z,727.52
2018-05-06T10:56:46.364Z,727.51
2018-05-06T10:57:46.838Z,727.55
2018-05-06T10:58:47.308Z,727.54
2018-05-06T10:59:47.783Z,727.49
2018-05-06T11:00:48.253Z,727.56
2018-05-06T11:01:48.727Z,727.57
2018-05-06T11:02:49.200Z,727.49
2018-05-06T11:03:49.722Z,727.50
2018-05-06T11:04:50.145Z,727.55
2018-05-06T11:05:50.620Z,727.52
2018-05-06T11:06:51.092Z,727.57
2018-05-06T11:07:51.564Z,727.50
2018-05-06T11:08:52.038Z,727.57
2018-05-06T11:09:52.513Z,727.50
2018-05-06T11:10:52.994Z,727.49
2018-05-06T11:11:53.463Z,727.53
2018-05-06T11:12:53.940Z,727.46
2018-05-06T11:13:54.462Z,727.56
2018-05-06T11:14:54.889Z,727.52
2018-05-06T11:15:55.361Z,727.51
2018-05-06T11:16:55.837Z,727.53
2018-05-06T11:17:56.317Z,727.57
2018-05-06T11:18:56.791Z,727.49
2018-05-06T11:19:57.270Z,727.51
2018-05-06T11:20:57.742Z,727.50
2018-05-06T11:21:58.218Z,727.48
2018-05-06T11:22:58.696Z,727.52
2018-05-06T11:23:59.173Z,727.48
2018-05-06T11:24:59.650Z,727.51
2018-05-06T11:26:00.127Z,727.48
2018-05-06T11:27:00.603Z,727.49
2018-05-06T11:28:01.082Z,727.48
2018-05-06T11:29:01.560Z,727.53
2018-05-06T11:30:02.037Z,727.48
2018-05-06T11:31:02.514Z,727.44
2018-05-06T11:32:02.992Z,727.49
2018-05-06T11:33:03.469Z,727.44
2018-05-06T11:34:03.947Z,727.45
2018-05-06T11:35:04.425Z,727.42
2018-05-06T11:36:04.902Z,727.44
2018-05-06T11:37:05.381Z,727.46
2018-05-06T11:38:05.856Z,727.42
2018-05-06T11:39:06.385Z,727.40
2018-05-06T11:40:06.812Z,727.41
2018-05-06T11:41:07.375Z,727.47
2018-05-06T11:42:07.764Z,727.36
2018-05-06T11:43:08.241Z,727.34
2018-05-06T11:44:08.724Z,727.33
2018-05-06T11:45:09.199Z,727.33
2018-05-06T11:46:09.674Z,727.37
2018-05-06T11:47:10.151Z,727.36
2018-05-06T11:48:10.647Z,727.34
2018-05-06T11:49:11.103Z,727.38
2018-05-06T11:50:11.586Z,727.37
2018-05-06T11:51:12.056Z,727.40
2018-05-06T11:52:12.533Z,727.37
2018-05-06T11:53:13.009Z,727.34
2018-05-06T11:54:13.539Z,727.36
2018-05-06T11:55:13.961Z,727.35
2018-05-06T11:56:14.443Z,727.32
2018-05-06T11:57:14.918Z,727.37
2018-05-06T11:58:15.389Z,727.33
2018-05-06T11:59:15.866Z,727.39
2018-05-06T12:00:16.346Z,727.36
2018-05-06T12:01:16.818Z,727.33
2018-05-06T12:02:17.374Z,727.36
2018-05-06T12:03:17.768Z,727.34
2018-05-06T12:04:18.246Z,727.33
2018-05-06T12:05:18.718Z,727.39
2018-05-06T12:06:19.195Z,727.32
2018-05-06T12:07:19.670Z,727.42
2018-05-06T12:08:20.148Z,727.39
2018-05-06T12:09:20.671Z,727.37
2018-05-06T12:10:21.096Z,727.39
2018-05-06T12:11:21.571Z,727.33
2018-05-06T12:12:22.046Z,727.35
2018-05-06T12:13:22.519Z,727.33
2018-05-06T12:14:22.996Z,727.31
2018-05-06T12:15:23.470Z,727.34
2018-05-06T12:16:23.948Z,727.29
2018-05-06T12:17:24.419Z,727.30
2018-05-06T12:18:24.893Z,727.32
2018-05-06T12:19:25.369Z,727.31
2018-05-06T12:20:25.842Z,727.28
2018-05-06T12:21:26.328Z,727.30
2018-05-06T12:22:26.794Z,727.35
2018-05-06T12:23:27.270Z,727.34
2018-05-06T12:24:27.745Z,727.24
2018-05-06T12:25:28.214Z,727.26
2018-05-06T12:26:28.689Z,727.24
2018-05-06T12:27:29.162Z,727.26
2018-05-06T12:28:29.636Z,727.28
2018-05-06T12:29:30.111Z,727.30
2018-05-06T12:30:30.589Z,727.25
2018-05-06T12:31:31.058Z,727.25
2018-05-06T12:32:31.535Z,727.23
2018-05-06T12:33:32.006Z,727.22
2018-05-06T12:34:32.480Z,727.23